Time,TemperatureF,DewpointF,PressureIn,WindDirection,WindDirectionDegrees,WindSpeedMPH,WindSpeedGustMPH,Humidity,HourlyPrecipIn,Conditions,Clouds,dailyrainin,SoftwareType,DateUTC
2016-07-26 00:02:00,81.5,71.6,29.90,South,180,1.1,1.6,71,0.00,,,0.00,meteobridge,2016-07-26 05:02:00,
2016-07-26 00:07:00,81.5,71.4,29.91,WSW,247,0.0,0.0,71,0.00,,,0.00,meteobridge,2016-07-26 05:07:00,
2016-07-26 00:12:00,81.1,71.2,29.90,NW,315,0.0,0.0,72,0.00,,,0.00,meteobridge,2016-07-26 05:12:00,
2016-07-26 00:17:00,81.0,71.2,29.91,West,270,0.0,0.0,72,0.00,,,0.00,meteobridge,2016-07-26 05:17:00,
2016-07-26 00:22:00,80.8,71.1,29.91,West,270,1.6,1.6,72,0.00,,,0.00,meteobridge,2016-07-26 05:22:00,
2016-07-26 00:28:00,80.8,71.2,29.91,West,270,0.0,1.6,73,0.00,,,0.00,meteobridge,2016-07-26 05:28:00,
2016-07-26 00:33:00,80.6,71.2,29.91,SW,225,0.0,2.0,73,0.00,,,0.00,meteobridge,2016-07-26 05:33:00,
2016-07-26 00:38:00,80.6,71.2,29.91,SW,225,1.1,1.1,73,0.00,,,0.00,meteobridge,2016-07-26 05:38:00,
2016-07-26 00:44:00,80.6,71.6,29.92,WSW,247,2.7,2.7,74,0.00,,,0.00,meteobridge,2016-07-26 05:44:00,
2016-07-26 00:49:00,80.2,71.6,29.92,West,270,2.7,2.7,74,0.00,,,0.00,meteobridge,2016-07-26 05:49:00,
2016-07-26 00:55:00,80.2,71.2,29.92,West,270,1.1,1.1,74,0.00,,,0.00,meteobridge,2016-07-26 05:55:00,
2016-07-26 01:00:00,80.1,71.1,29.92,WSW,247,2.7,4.0,74,0.00,,,0.00,meteobridge,2016-07-26 06:00:00,
2016-07-26 01:06:00,80.1,71.1,29.91,WSW,247,2.7,2.7,74,0.00,,,0.00,meteobridge,2016-07-26 06:06:00,
2016-07-26 01:11:00,79.9,71.4,29.92,SW,225,0.0,0.0,75,0.00,,,0.00,meteobridge,2016-07-26 06:11:00,
2016-07-26 01:17:00,79.7,71.4,29.92,WSW,247,0.0,0.0,75,0.00,,,0.00,meteobridge,2016-07-26 06:17:00,
2016-07-26 01:22:00,79.7,71.2,29.92,West,270,0.0,2.7,75,0.00,,,0.00,meteobridge,2016-07-26 06:22:00,
2016-07-26 01:27:00,79.3,71.2,29.92,WSW,247,0.0,0.0,75,0.00,,,0.00,meteobridge,2016-07-26 06:27:00,
2016-07-26 01:32:00,79.3,71.2,29.92,SW,225,0.0,0.0,76,0.00,,,0.00,meteobridge,2016-07-26 06:32:00,
2016-07-26 01:38:00,79.3,71.2,29.91,SSW,202,0.0,0.0,76,0.00,,,0.00,meteobridge,2016-07-26 06:38:00,
2016-07-26 01:43:00,79.3,71.2,29.92,SW,225,0.0,0.0,76,0.00,,,0.00,meteobridge,2016-07-26 06:43:00,
2016-07-26 01:49:00,79.2,71.1,29.92,SSW,202,0.0,1.1,76,0.00,,,0.00,meteobridge,2016-07-26 06:49:00,
2016-07-26 01:55:00,79.3,71.4,29.92,SSW,202,0.0,0.0,77,0.00,,,0.00,meteobridge,2016-07-26 06:55:00,
2016-07-26 02:00:00,79.2,71.4,29.92,SW,225,0.0,0.0,77,0.00,,,0.00,meteobridge,2016-07-26 07:00:00,
2016-07-26 02:05:00,79.2,71.2,29.91,WSW,247,0.0,0.0,77,0.00,,,0.00,meteobridge,2016-07-26 07:05:00,
2016-07-26 02:10:00,79.0,71.2,29.91,West,270,0.0,0.0,77,0.00,,,0.00,meteobridge,2016-07-26 07:10:00,